Dati Storici

Data ora Umidita' aria (%) Temperatura aria (°C) Rad globale (W/m²) Gonioanemometro (°) Tacoanemometro (m/s) Pioggia (mm)
08-11-2012 20:50 82.5 % 9.974 2.915 296.396 0.424 0
08-11-2012 20:40 82.8 % 9.698 2.615 237.583 0.304 0
08-11-2012 20:30 81.9 % 9.539 2.359 118.135 0.193 0
08-11-2012 20:20 81.2 % 9.7 1.923 193.162 0.22 0
08-11-2012 20:10 81.4 % 10.089 2.077 268.178 0.808 0
08-11-2012 20:00 82.3 % 10.141 1.506 267.483 1.016 0
08-11-2012 19:50 82.9 % 9.759 2.083 277.538 0.25 0
08-11-2012 19:40 81.7 % 9.636 2.019 250.934 0.093 0
08-11-2012 19:30 81.9 % 9.943 2.096 285.104 0.301 0
08-11-2012 19:20 82.1 % 10.112 2.173 205.886 0.42 0
08-11-2012 19:10 83 % 9.727 1.917 172.215 0.369 0
08-11-2012 19:00 81.8 % 9.725 2.25 131.271 0.25 0
08-11-2012 18:50 82.1 % 10.011 2.596 87.448 0.151 0
08-11-2012 18:40 81.3 % 10.164 2.955 17.823 0.196 0
08-11-2012 18:30 81 % 10.169 3.109 32.01 0.197 0
08-11-2012 18:20 79.1 % 10.118 2.109 147.027 -0.003 0
08-11-2012 18:10 77.9 % 10.438 1.994 100.359 -0.002 0
08-11-2012 18:00 77.5 % 10.392 3.124 69.416 -0.003 0
08-11-2012 17:50 77 % 10.709 4.124 37.449 0.271 0
08-11-2012 17:40 75 % 11.114 8.565 70.958 0.404 0

I dati sono presentati in modo automatico a scopo informativo. In seguito a verifica i dati possono subire modifiche o essere invalidati e non riportati negli archivi definitivi.